sensor_id;sensor_type;location;lat;lon;timestamp;pressure;altitude;pressure_sealevel;temperature
74539;BMP180;66042;51.090;-115.340;2023-04-21T00:00:05;87123.40;;;31.06
74539;BMP180;66042;51.090;-115.340;2023-04-21T00:02:34;87122.60;;;30.60
74539;BMP180;66042;51.090;-115.340;2023-04-21T00:05:07;87137.80;;;29.86
74539;BMP180;66042;51.090;-115.340;2023-04-21T00:07:36;87144.00;;;27.70
74539;BMP180;66042;51.090;-115.340;2023-04-21T00:10:06;87139.60;;;25.70
74539;BMP180;66042;51.090;-115.340;2023-04-21T00:12:34;87140.20;;;24.22
74539;BMP180;66042;51.090;-115.340;2023-04-21T00:15:01;87144.20;;;22.86
74539;BMP180;66042;51.090;-115.340;2023-04-21T00:17:29;87137.60;;;21.58
74539;BMP180;66042;51.090;-115.340;2023-04-21T00:19:57;87129.80;;;20.80
74539;BMP180;66042;51.090;-115.340;2023-04-21T00:22:24;87133.60;;;20.06
74539;BMP180;66042;51.090;-115.340;2023-04-21T00:24:51;87132.60;;;19.06
74539;BMP180;66042;51.090;-115.340;2023-04-21T00:27:18;87131.20;;;18.02
74539;BMP180;66042;51.090;-115.340;2023-04-21T00:29:45;87131.40;;;17.24
74539;BMP180;66042;51.090;-115.340;2023-04-21T00:32:12;87127.20;;;16.46
74539;BMP180;66042;51.090;-115.340;2023-04-21T00:34:41;87129.00;;;15.76
74539;BMP180;66042;51.090;-115.340;2023-04-21T00:37:08;87127.00;;;15.10
74539;BMP180;66042;51.090;-115.340;2023-04-21T00:39:35;87128.80;;;14.48
74539;BMP180;66042;51.090;-115.340;2023-04-21T00:42:02;87126.00;;;13.96
74539;BMP180;66042;51.090;-115.340;2023-04-21T00:44:30;87130.40;;;13.40
74539;BMP180;66042;51.090;-115.340;2023-04-21T00:46:57;87132.40;;;12.98
74539;BMP180;66042;51.090;-115.340;2023-04-21T00:49:25;87126.00;;;12.54
74539;BMP180;66042;51.090;-115.340;2023-04-21T00:51:53;87121.60;;;12.10
74539;BMP180;66042;51.090;-115.340;2023-04-21T00:54:24;87118.80;;;11.70
74539;BMP180;66042;51.090;-115.340;2023-04-21T00:56:51;87112.00;;;11.50
74539;BMP180;66042;51.090;-115.340;2023-04-21T00:59:19;87110.20;;;11.30
74539;BMP180;66042;51.090;-115.340;2023-04-21T01:01:46;87112.40;;;11.00
74539;BMP180;66042;51.090;-115.340;2023-04-21T01:04:13;87113.20;;;10.80
74539;BMP180;66042;51.090;-115.340;2023-04-21T01:06:41;87108.60;;;10.58
74539;BMP180;66042;51.090;-115.340;2023-04-21T01:09:09;87105.40;;;10.30
74539;BMP180;66042;51.090;-115.340;2023-04-21T01:11:38;87105.80;;;10.10
74539;BMP180;66042;51.090;-115.340;2023-04-21T01:14:05;87103.80;;;9.82
74539;BMP180;66042;51.090;-115.340;2023-04-21T01:16:33;87099.00;;;9.62
74539;BMP180;66042;51.090;-115.340;2023-04-21T01:19:01;87103.60;;;9.50
74539;BMP180;66042;51.090;-115.340;2023-04-21T01:21:49;87101.60;;;9.30
74539;BMP180;66042;51.090;-115.340;2023-04-21T01:24:23;87102.40;;;9.10
74539;BMP180;66042;51.090;-115.340;2023-04-21T01:26:50;87102.40;;;9.00
74539;BMP180;66042;51.090;-115.340;2023-04-21T01:29:18;87098.20;;;8.90
74539;BMP180;66042;51.090;-115.340;2023-04-21T01:31:44;87101.60;;;8.74
74539;BMP180;66042;51.090;-115.340;2023-04-21T01:34:13;87103.00;;;8.40
74539;BMP180;66042;51.090;-115.340;2023-04-21T01:36:41;87103.00;;;8.24
74539;BMP180;66042;51.090;-115.340;2023-04-21T01:39:07;87100.00;;;8.10
74539;BMP180;66042;51.090;-115.340;2023-04-21T01:41:35;87095.80;;;8.00
74539;BMP180;66042;51.090;-115.340;2023-04-21T01:44:02;87091.20;;;7.76
74539;BMP180;66042;51.090;-115.340;2023-04-21T01:46:29;87087.80;;;7.60
74539;BMP180;66042;51.090;-115.340;2023-04-21T01:48:56;87091.40;;;7.40
74539;BMP180;66042;51.090;-115.340;2023-04-21T01:51:23;87089.60;;;7.24
74539;BMP180;66042;51.090;-115.340;2023-04-21T01:53:50;87091.40;;;7.10
74539;BMP180;66042;51.090;-115.340;2023-04-21T01:56:17;87085.00;;;7.00
74539;BMP180;66042;51.090;-115.340;2023-04-21T01:58:45;87085.00;;;6.90
74539;BMP180;66042;51.090;-115.340;2023-04-21T02:01:12;87092.20;;;6.80
74539;BMP180;66042;51.090;-115.340;2023-04-21T02:03:39;87088.40;;;6.62
74539;BMP180;66042;51.090;-115.340;2023-04-21T02:06:06;87095.20;;;6.50
74539;BMP180;66042;51.090;-115.340;2023-04-21T02:08:33;87091.20;;;6.30
74539;BMP180;66042;51.090;-115.340;2023-04-21T02:11:03;87087.60;;;6.10
74539;BMP180;66042;51.090;-115.340;2023-04-21T02:13:31;87082.80;;;5.90
74539;BMP180;66042;51.090;-115.340;2023-04-21T02:15:58;87087.20;;;5.70
74539;BMP180;66042;51.090;-115.340;2023-04-21T02:18:25;87087.00;;;5.60
74539;BMP180;66042;51.090;-115.340;2023-04-21T02:20:55;87080.40;;;5.50
74539;BMP180;66042;51.090;-115.340;2023-04-21T02:23:22;87086.80;;;5.48
74539;BMP180;66042;51.090;-115.340;2023-04-21T02:25:49;87083.80;;;5.30
74539;BMP180;66042;51.090;-115.340;2023-04-21T02:28:16;87082.20;;;5.20
74539;BMP180;66042;51.090;-115.340;2023-04-21T02:30:43;87076.40;;;5.08
74539;BMP180;66042;51.090;-115.340;2023-04-21T02:33:11;87083.20;;;4.90
74539;BMP180;66042;51.090;-115.340;2023-04-21T02:35:38;87091.40;;;4.80
74539;BMP180;66042;51.090;-115.340;2023-04-21T02:38:05;87084.00;;;4.70
74539;BMP180;66042;51.090;-115.340;2023-04-21T02:40:34;87084.80;;;4.60
74539;BMP180;66042;51.090;-115.340;2023-04-21T02:43:02;87086.60;;;4.50
74539;BMP180;66042;51.090;-115.340;2023-04-21T02:45:29;87085.40;;;4.40
74539;BMP180;66042;51.090;-115.340;2023-04-21T02:47:56;87081.40;;;4.30
74539;BMP180;66042;51.090;-115.340;2023-04-21T02:50:25;87081.40;;;4.20
74539;BMP180;66042;51.090;-115.340;2023-04-21T02:52:52;87083.00;;;4.10
74539;BMP180;66042;51.090;-115.340;2023-04-21T02:55:19;87087.80;;;4.00
74539;BMP180;66042;51.090;-115.340;2023-04-21T02:57:48;87086.60;;;4.00
74539;BMP180;66042;51.090;-115.340;2023-04-21T03:00:15;87089.40;;;3.90
74539;BMP180;66042;51.090;-115.340;2023-04-21T03:02:42;87086.40;;;3.80
74539;BMP180;66042;51.090;-115.340;2023-04-21T03:05:10;87087.20;;;3.70
74539;BMP180;66042;51.090;-115.340;2023-04-21T03:07:37;87089.80;;;3.60
74539;BMP180;66042;51.090;-115.340;2023-04-21T03:10:05;87088.80;;;3.56
74539;BMP180;66042;51.090;-115.340;2023-04-21T03:12:32;87085.40;;;3.50
74539;BMP180;66042;51.090;-115.340;2023-04-21T03:15:00;87090.00;;;3.40
74539;BMP180;66042;51.090;-115.340;2023-04-21T03:17:27;87089.80;;;3.40
74539;BMP180;66042;51.090;-115.340;2023-04-21T03:19:54;87082.20;;;3.30
74539;BMP180;66042;51.090;-115.340;2023-04-21T03:22:21;87084.20;;;3.30
74539;BMP180;66042;51.090;-115.340;2023-04-21T03:24:48;87086.00;;;3.30
74539;BMP180;66042;51.090;-115.340;2023-04-21T03:27:15;87083.00;;;3.20
74539;BMP180;66042;51.090;-115.340;2023-04-21T03:29:42;87075.20;;;3.10
74539;BMP180;66042;51.090;-115.340;2023-04-21T03:32:09;87078.40;;;3.10
74539;BMP180;66042;51.090;-115.340;2023-04-21T03:34:36;87077.40;;;3.00
74539;BMP180;66042;51.090;-115.340;2023-04-21T03:37:03;87072.40;;;2.90
74539;BMP180;66042;51.090;-115.340;2023-04-21T03:39:30;87073.00;;;2.90
74539;BMP180;66042;51.090;-115.340;2023-04-21T03:41:57;87072.20;;;2.80
74539;BMP180;66042;51.090;-115.340;2023-04-21T03:44:27;87071.80;;;2.80
74539;BMP180;66042;51.090;-115.340;2023-04-21T03:46:55;87073.20;;;2.80
74539;BMP180;66042;51.090;-115.340;2023-04-21T03:49:23;87068.80;;;2.80
74539;BMP180;66042;51.090;-115.340;2023-04-21T03:51:50;87065.20;;;2.76
74539;BMP180;66042;51.090;-115.340;2023-04-21T03:54:17;87063.60;;;2.70
74539;BMP180;66042;51.090;-115.340;2023-04-21T03:56:44;87061.80;;;2.70
74539;BMP180;66042;51.090;-115.340;2023-04-21T03:59:11;87057.80;;;2.60
74539;BMP180;66042;51.090;-115.340;2023-04-21T04:01:38;87052.40;;;2.60
74539;BMP180;66042;51.090;-115.340;2023-04-21T04:04:07;87053.20;;;2.60
74539;BMP180;66042;51.090;-115.340;2023-04-21T04:06:35;87047.60;;;2.50
74539;BMP180;66042;51.090;-115.340;2023-04-21T04:09:02;87041.40;;;2.50
74539;BMP180;66042;51.090;-115.340;2023-04-21T04:11:31;87042.40;;;2.40
74539;BMP180;66042;51.090;-115.340;2023-04-21T04:13:58;87042.80;;;2.32
74539;BMP180;66042;51.090;-115.340;2023-04-21T04:16:25;87043.20;;;2.30
74539;BMP180;66042;51.090;-115.340;2023-04-21T04:18:54;87043.00;;;2.24
74539;BMP180;66042;51.090;-115.340;2023-04-21T04:21:21;87044.20;;;2.20
74539;BMP180;66042;51.090;-115.340;2023-04-21T04:23:50;87047.80;;;2.26
74539;BMP180;66042;51.090;-115.340;2023-04-21T04:26:20;87049.00;;;2.20
74539;BMP180;66042;51.090;-115.340;2023-04-21T04:28:51;87052.20;;;2.20
74539;BMP180;66042;51.090;-115.340;2023-04-21T04:31:19;87047.60;;;2.20
74539;BMP180;66042;51.090;-115.340;2023-04-21T04:33:47;87045.20;;;2.20
74539;BMP180;66042;51.090;-115.340;2023-04-21T04:36:14;87051.40;;;2.20
74539;BMP180;66042;51.090;-115.340;2023-04-21T04:38:42;87053.80;;;2.10
74539;BMP180;66042;51.090;-115.340;2023-04-21T04:41:09;87052.80;;;2.06
74539;BMP180;66042;51.090;-115.340;2023-04-21T04:43:38;87053.60;;;2.00
74539;BMP180;66042;51.090;-115.340;2023-04-21T04:46:05;87056.20;;;2.00
74539;BMP180;66042;51.090;-115.340;2023-04-21T04:48:34;87053.80;;;2.00
74539;BMP180;66042;51.090;-115.340;2023-04-21T04:51:01;87050.40;;;2.00
74539;BMP180;66042;51.090;-115.340;2023-04-21T04:53:29;87049.80;;;2.00
74539;BMP180;66042;51.090;-115.340;2023-04-21T04:55:57;87052.60;;;2.00
74539;BMP180;66042;51.090;-115.340;2023-04-21T04:58:25;87050.40;;;2.00
74539;BMP180;66042;51.090;-115.340;2023-04-21T05:00:51;87049.00;;;1.96
74539;BMP180;66042;51.090;-115.340;2023-04-21T05:03:18;87048.40;;;1.90
74539;BMP180;66042;51.090;-115.340;2023-04-21T05:05:46;87040.20;;;1.90
74539;BMP180;66042;51.090;-115.340;2023-04-21T05:08:13;87044.00;;;1.90
74539;BMP180;66042;51.090;-115.340;2023-04-21T05:10:40;87044.60;;;1.90
74539;BMP180;66042;51.090;-115.340;2023-04-21T05:13:07;87043.40;;;1.80
74539;BMP180;66042;51.090;-115.340;2023-04-21T05:15:34;87040.60;;;1.80
74539;BMP180;66042;51.090;-115.340;2023-04-21T05:18:01;87040.60;;;1.80
74539;BMP180;66042;51.090;-115.340;2023-04-21T05:20:29;87036.60;;;1.80
74539;BMP180;66042;51.090;-115.340;2023-04-21T05:22:56;87036.20;;;1.70
74539;BMP180;66042;51.090;-115.340;2023-04-21T05:25:23;87036.00;;;1.70
74539;BMP180;66042;51.090;-115.340;2023-04-21T05:27:50;87034.20;;;1.70
74539;BMP180;66042;51.090;-115.340;2023-04-21T05:30:17;87030.80;;;1.60
74539;BMP180;66042;51.090;-115.340;2023-04-21T05:32:45;87031.20;;;1.60
74539;BMP180;66042;51.090;-115.340;2023-04-21T05:35:11;87029.00;;;1.60
74539;BMP180;66042;51.090;-115.340;2023-04-21T05:37:39;87032.80;;;1.52
74539;BMP180;66042;51.090;-115.340;2023-04-21T05:40:06;87032.60;;;1.50
74539;BMP180;66042;51.090;-115.340;2023-04-21T05:42:33;87032.00;;;1.50
74539;BMP180;66042;51.090;-115.340;2023-04-21T05:45:01;87027.80;;;1.50
74539;BMP180;66042;51.090;-115.340;2023-04-21T05:47:29;87032.20;;;1.50
74539;BMP180;66042;51.090;-115.340;2023-04-21T05:49:56;87024.80;;;1.50
74539;BMP180;66042;51.090;-115.340;2023-04-21T05:52:23;87025.60;;;1.44
74539;BMP180;66042;51.090;-115.340;2023-04-21T05:54:50;87025.00;;;1.46
74539;BMP180;66042;51.090;-115.340;2023-04-21T05:57:18;87026.00;;;1.40
74539;BMP180;66042;51.090;-115.340;2023-04-21T05:59:45;87031.40;;;1.40
74539;BMP180;66042;51.090;-115.340;2023-04-21T06:02:12;87029.40;;;1.40
74539;BMP180;66042;51.090;-115.340;2023-04-21T06:04:39;87027.20;;;1.32
74539;BMP180;66042;51.090;-115.340;2023-04-21T06:07:08;87023.20;;;1.30
74539;BMP180;66042;51.090;-115.340;2023-04-21T06:09:35;87024.20;;;1.36
74539;BMP180;66042;51.090;-115.340;2023-04-21T06:12:04;87021.20;;;1.30
74539;BMP180;66042;51.090;-115.340;2023-04-21T06:14:31;87023.60;;;1.30
74539;BMP180;66042;51.090;-115.340;2023-04-21T06:16:59;87019.60;;;1.20
74539;BMP180;66042;51.090;-115.340;2023-04-21T06:19:26;87020.00;;;1.20
74539;BMP180;66042;51.090;-115.340;2023-04-21T06:21:55;87018.40;;;1.10
74539;BMP180;66042;51.090;-115.340;2023-04-21T06:24:22;87018.00;;;1.10
74539;BMP180;66042;51.090;-115.340;2023-04-21T06:26:52;87018.40;;;1.10
74539;BMP180;66042;51.090;-115.340;2023-04-21T06:29:19;87018.00;;;1.10
74539;BMP180;66042;51.090;-115.340;2023-04-21T06:31:46;87016.60;;;1.10
74539;BMP180;66042;51.090;-115.340;2023-04-21T06:34:13;87015.60;;;1.10
74539;BMP180;66042;51.090;-115.340;2023-04-21T06:36:41;87014.40;;;1.10
74539;BMP180;66042;51.090;-115.340;2023-04-21T06:39:08;87008.80;;;1.04
74539;BMP180;66042;51.090;-115.340;2023-04-21T06:41:35;87014.00;;;1.00
74539;BMP180;66042;51.090;-115.340;2023-04-21T06:44:02;87012.80;;;1.00
74539;BMP180;66042;51.090;-115.340;2023-04-21T06:46:29;87012.40;;;1.00
74539;BMP180;66042;51.090;-115.340;2023-04-21T06:48:57;87010.40;;;1.00
74539;BMP180;66042;51.090;-115.340;2023-04-21T06:51:24;87012.40;;;1.00
74539;BMP180;66042;51.090;-115.340;2023-04-21T06:53:51;87017.00;;;0.90
74539;BMP180;66042;51.090;-115.340;2023-04-21T06:56:18;87022.60;;;0.90
74539;BMP180;66042;51.090;-115.340;2023-04-21T06:58:45;87022.00;;;0.90
74539;BMP180;66042;51.090;-115.340;2023-04-21T07:01:12;87020.80;;;0.90
74539;BMP180;66042;51.090;-115.340;2023-04-21T07:03:39;87017.00;;;0.82
74539;BMP180;66042;51.090;-115.340;2023-04-21T07:06:06;87015.60;;;0.80
74539;BMP180;66042;51.090;-115.340;2023-04-21T07:08:33;87012.80;;;0.80
74539;BMP180;66042;51.090;-115.340;2023-04-21T07:11:00;87018.00;;;0.70
74539;BMP180;66042;51.090;-115.340;2023-04-21T07:13:27;87017.20;;;0.70
74539;BMP180;66042;51.090;-115.340;2023-04-21T07:15:54;87017.40;;;0.70
74539;BMP180;66042;51.090;-115.340;2023-04-21T07:18:22;87016.20;;;0.70
74539;BMP180;66042;51.090;-115.340;2023-04-21T07:20:48;87015.40;;;0.70
74539;BMP180;66042;51.090;-115.340;2023-04-21T07:23:16;87015.40;;;0.70
74539;BMP180;66042;51.090;-115.340;2023-04-21T07:25:43;87017.80;;;0.70
74539;BMP180;66042;51.090;-115.340;2023-04-21T07:28:11;87013.60;;;0.68
74539;BMP180;66042;51.090;-115.340;2023-04-21T07:30:40;87009.20;;;0.60
74539;BMP180;66042;51.090;-115.340;2023-04-21T07:33:08;87010.40;;;0.60
74539;BMP180;66042;51.090;-115.340;2023-04-21T07:35:35;87005.60;;;0.60
74539;BMP180;66042;51.090;-115.340;2023-04-21T07:38:02;87005.80;;;0.52
74539;BMP180;66042;51.090;-115.340;2023-04-21T07:40:29;87008.60;;;0.50
74539;BMP180;66042;51.090;-115.340;2023-04-21T07:42:56;87006.20;;;0.50
74539;BMP180;66042;51.090;-115.340;2023-04-21T07:45:24;86999.20;;;0.40
74539;BMP180;66042;51.090;-115.340;2023-04-21T07:47:52;86998.60;;;0.40
74539;BMP180;66042;51.090;-115.340;2023-04-21T07:50:19;87002.20;;;0.40
74539;BMP180;66042;51.090;-115.340;2023-04-21T07:52:46;86994.20;;;0.40
74539;BMP180;66042;51.090;-115.340;2023-04-21T07:55:14;86994.20;;;0.40
74539;BMP180;66042;51.090;-115.340;2023-04-21T07:57:41;86991.80;;;0.40
74539;BMP180;66042;51.090;-115.340;2023-04-21T08:00:09;86990.00;;;0.40
74539;BMP180;66042;51.090;-115.340;2023-04-21T08:02:36;86991.20;;;0.40
74539;BMP180;66042;51.090;-115.340;2023-04-21T08:05:04;86989.20;;;0.40
74539;BMP180;66042;51.090;-115.340;2023-04-21T08:07:31;86987.80;;;0.40
74539;BMP180;66042;51.090;-115.340;2023-04-21T08:09:58;86987.40;;;0.48
74539;BMP180;66042;51.090;-115.340;2023-04-21T08:12:26;86991.00;;;0.50
74539;BMP180;66042;51.090;-115.340;2023-04-21T08:14:53;86986.20;;;0.50
74539;BMP180;66042;51.090;-115.340;2023-04-21T08:17:20;86982.40;;;0.50
74539;BMP180;66042;51.090;-115.340;2023-04-21T08:19:47;86983.00;;;0.50
74539;BMP180;66042;51.090;-115.340;2023-04-21T08:22:14;86984.20;;;0.50
74539;BMP180;66042;51.090;-115.340;2023-04-21T08:24:42;86983.80;;;0.50
74539;BMP180;66042;51.090;-115.340;2023-04-21T08:27:09;86980.00;;;0.50
74539;BMP180;66042;51.090;-115.340;2023-04-21T08:29:36;86983.80;;;0.50
74539;BMP180;66042;51.090;-115.340;2023-04-21T08:32:03;86979.60;;;0.50
74539;BMP180;66042;51.090;-115.340;2023-04-21T08:34:30;86976.40;;;0.42
74539;BMP180;66042;51.090;-115.340;2023-04-21T08:36:57;86978.20;;;0.40
74539;BMP180;66042;51.090;-115.340;2023-04-21T08:39:25;86975.80;;;0.40
74539;BMP180;66042;51.090;-115.340;2023-04-21T08:41:52;86970.80;;;0.40
74539;BMP180;66042;51.090;-115.340;2023-04-21T08:44:20;86964.80;;;0.38
74539;BMP180;66042;51.090;-115.340;2023-04-21T08:46:50;86964.60;;;0.40
74539;BMP180;66042;51.090;-115.340;2023-04-21T08:49:20;86965.00;;;0.32
74539;BMP180;66042;51.090;-115.340;2023-04-21T08:51:47;86965.20;;;0.30
74539;BMP180;66042;51.090;-115.340;2023-04-21T08:54:14;86967.20;;;0.30
74539;BMP180;66042;51.090;-115.340;2023-04-21T08:56:41;86965.00;;;0.30
74539;BMP180;66042;51.090;-115.340;2023-04-21T08:59:08;86965.40;;;0.26
74539;BMP180;66042;51.090;-115.340;2023-04-21T09:02:14;86961.20;;;0.30
74539;BMP180;66042;51.090;-115.340;2023-04-21T09:04:49;86963.40;;;0.30
74539;BMP180;66042;51.090;-115.340;2023-04-21T09:07:36;86956.60;;;0.20
74539;BMP180;66042;51.090;-115.340;2023-04-21T09:10:07;86958.00;;;0.16
74539;BMP180;66042;51.090;-115.340;2023-04-21T09:12:34;86950.60;;;0.10
74539;BMP180;66042;51.090;-115.340;2023-04-21T09:15:07;86955.60;;;0.10
74539;BMP180;66042;51.090;-115.340;2023-04-21T09:17:36;86952.40;;;0.10
74539;BMP180;66042;51.090;-115.340;2023-04-21T09:20:14;86949.20;;;0.10
74539;BMP180;66042;51.090;-115.340;2023-04-21T09:22:41;86948.80;;;0.06
74539;BMP180;66042;51.090;-115.340;2023-04-21T09:25:09;86950.20;;;0.00
74539;BMP180;66042;51.090;-115.340;2023-04-21T09:27:37;86953.00;;;-0.06
74539;BMP180;66042;51.090;-115.340;2023-04-21T09:30:05;86951.80;;;-0.04
74539;BMP180;66042;51.090;-115.340;2023-04-21T09:32:39;86948.80;;;-0.10
74539;BMP180;66042;51.090;-115.340;2023-04-21T09:35:10;86949.20;;;-0.10
74539;BMP180;66042;51.090;-115.340;2023-04-21T09:37:39;86943.60;;;-0.10
74539;BMP180;66042;51.090;-115.340;2023-04-21T09:40:13;86942.80;;;-0.10
74539;BMP180;66042;51.090;-115.340;2023-04-21T09:42:44;86946.40;;;-0.10
74539;BMP180;66042;51.090;-115.340;2023-04-21T09:45:12;86945.20;;;-0.10
74539;BMP180;66042;51.090;-115.340;2023-04-21T09:47:48;86945.40;;;-0.10
74539;BMP180;66042;51.090;-115.340;2023-04-21T09:50:19;86949.80;;;-0.10
74539;BMP180;66042;51.090;-115.340;2023-04-21T09:52:51;86952.20;;;-0.10
74539;BMP180;66042;51.090;-115.340;2023-04-21T09:55:23;86953.00;;;-0.02
74539;BMP180;66042;51.090;-115.340;2023-04-21T09:57:58;86957.80;;;-0.02
74539;BMP180;66042;51.090;-115.340;2023-04-21T10:00:27;86956.20;;;0.00
74539;BMP180;66042;51.090;-115.340;2023-04-21T10:03:04;86959.40;;;-0.06
74539;BMP180;66042;51.090;-115.340;2023-04-21T10:05:37;86950.60;;;-0.10
74539;BMP180;66042;51.090;-115.340;2023-04-21T10:08:05;86951.00;;;0.00
74539;BMP180;66042;51.090;-115.340;2023-04-21T10:10:37;86944.20;;;0.00
74539;BMP180;66042;51.090;-115.340;2023-04-21T10:13:05;86948.60;;;0.00
74539;BMP180;66042;51.090;-115.340;2023-04-21T10:15:40;86951.80;;;0.00
74539;BMP180;66042;51.090;-115.340;2023-04-21T10:18:18;86954.80;;;0.00
74539;BMP180;66042;51.090;-115.340;2023-04-21T10:21:09;86954.40;;;0.00
74539;BMP180;66042;51.090;-115.340;2023-04-21T10:23:38;86956.60;;;0.00
74539;BMP180;66042;51.090;-115.340;2023-04-21T10:26:20;86953.80;;;0.00
74539;BMP180;66042;51.090;-115.340;2023-04-21T10:28:58;86955.00;;;0.00
74539;BMP180;66042;51.090;-115.340;2023-04-21T10:31:36;86959.40;;;-0.10
74539;BMP180;66042;51.090;-115.340;2023-04-21T10:39:42;86956.80;;;-0.10
74539;BMP180;66042;51.090;-115.340;2023-04-21T10:47:48;86954.00;;;-0.20
74539;BMP180;66042;51.090;-115.340;2023-04-21T10:50:27;86957.20;;;-0.20
74539;BMP180;66042;51.090;-115.340;2023-04-21T10:53:12;86955.40;;;-0.20
74539;BMP180;66042;51.090;-115.340;2023-04-21T10:55:39;86955.80;;;-0.20
74539;BMP180;66042;51.090;-115.340;2023-04-21T10:58:08;86957.40;;;-0.20
74539;BMP180;66042;51.090;-115.340;2023-04-21T11:00:36;86956.20;;;-0.20
74539;BMP180;66042;51.090;-115.340;2023-04-21T11:03:06;86952.40;;;-0.30
74539;BMP180;66042;51.090;-115.340;2023-04-21T11:05:39;86952.40;;;-0.26
74539;BMP180;66042;51.090;-115.340;2023-04-21T11:08:15;86956.20;;;-0.24
74539;BMP180;66042;51.090;-115.340;2023-04-21T11:11:00;86962.00;;;-0.22
74539;BMP180;66042;51.090;-115.340;2023-04-21T11:13:27;86963.20;;;-0.26
74539;BMP180;66042;51.090;-115.340;2023-04-21T11:18:44;86970.40;;;-0.30
74539;BMP180;66042;51.090;-115.340;2023-04-21T11:21:17;86970.60;;;-0.30
74539;BMP180;66042;51.090;-115.340;2023-04-21T11:23:57;86966.00;;;-0.30
74539;BMP180;66042;51.090;-115.340;2023-04-21T11:26:36;86965.80;;;-0.30
74539;BMP180;66042;51.090;-115.340;2023-04-21T11:29:06;86965.60;;;-0.30
74539;BMP180;66042;51.090;-115.340;2023-04-21T11:31:35;86962.00;;;-0.30
74539;BMP180;66042;51.090;-115.340;2023-04-21T11:34:04;86966.40;;;-0.24
74539;BMP180;66042;51.090;-115.340;2023-04-21T11:36:40;86967.00;;;-0.20
74539;BMP180;66042;51.090;-115.340;2023-04-21T11:39:11;86965.80;;;-0.20
74539;BMP180;66042;51.090;-115.340;2023-04-21T11:41:47;86968.60;;;-0.10
74539;BMP180;66042;51.090;-115.340;2023-04-21T11:44:40;86968.00;;;-0.10
74539;BMP180;66042;51.090;-115.340;2023-04-21T11:47:25;86966.20;;;-0.10
74539;BMP180;66042;51.090;-115.340;2023-04-21T11:49:59;86968.60;;;-0.10
74539;BMP180;66042;51.090;-115.340;2023-04-21T11:52:34;86970.40;;;-0.10
74539;BMP180;66042;51.090;-115.340;2023-04-21T11:55:16;86970.20;;;-0.10
74539;BMP180;66042;51.090;-115.340;2023-04-21T11:57:47;86972.20;;;-0.10
74539;BMP180;66042;51.090;-115.340;2023-04-21T12:00:17;86973.60;;;-0.10
74539;BMP180;66042;51.090;-115.340;2023-04-21T12:02:53;86972.40;;;-0.18
74539;BMP180;66042;51.090;-115.340;2023-04-21T12:05:22;86974.60;;;-0.20
74539;BMP180;66042;51.090;-115.340;2023-04-21T12:07:49;86972.40;;;-0.20
74539;BMP180;66042;51.090;-115.340;2023-04-21T12:10:21;86977.20;;;-0.20
74539;BMP180;66042;51.090;-115.340;2023-04-21T12:12:48;86976.20;;;-0.20
74539;BMP180;66042;51.090;-115.340;2023-04-21T12:15:20;86979.00;;;-0.22
74539;BMP180;66042;51.090;-115.340;2023-04-21T12:17:52;86976.60;;;-0.30
74539;BMP180;66042;51.090;-115.340;2023-04-21T12:20:23;86977.60;;;-0.30
74539;BMP180;66042;51.090;-115.340;2023-04-21T12:22:50;86981.40;;;-0.34
74539;BMP180;66042;51.090;-115.340;2023-04-21T12:25:18;86981.20;;;-0.38
74539;BMP180;66042;51.090;-115.340;2023-04-21T12:27:58;86983.20;;;-0.30
74539;BMP180;66042;51.090;-115.340;2023-04-21T12:30:25;86984.60;;;-0.34
74539;BMP180;66042;51.090;-115.340;2023-04-21T12:32:52;86986.60;;;-0.40
74539;BMP180;66042;51.090;-115.340;2023-04-21T12:35:21;86990.60;;;-0.40
74539;BMP180;66042;51.090;-115.340;2023-04-21T12:37:49;86990.00;;;-0.40
74539;BMP180;66042;51.090;-115.340;2023-04-21T12:40:16;86993.00;;;-0.40
74539;BMP180;66042;51.090;-115.340;2023-04-21T12:42:44;86995.60;;;-0.40
74539;BMP180;66042;51.090;-115.340;2023-04-21T12:45:11;86998.80;;;-0.50
74539;BMP180;66042;51.090;-115.340;2023-04-21T12:47:39;87000.60;;;-0.40
74539;BMP180;66042;51.090;-115.340;2023-04-21T12:50:08;87007.20;;;-0.40
74539;BMP180;66042;51.090;-115.340;2023-04-21T12:52:40;87003.40;;;-0.40
74539;BMP180;66042;51.090;-115.340;2023-04-21T12:55:07;87007.40;;;-0.40
74539;BMP180;66042;51.090;-115.340;2023-04-21T12:57:34;87008.00;;;-0.30
74539;BMP180;66042;51.090;-115.340;2023-04-21T13:00:01;87003.80;;;-0.30
74539;BMP180;66042;51.090;-115.340;2023-04-21T13:02:30;87009.20;;;-0.30
74539;BMP180;66042;51.090;-115.340;2023-04-21T13:05:02;87007.80;;;-0.30
74539;BMP180;66042;51.090;-115.340;2023-04-21T13:07:35;87010.20;;;-0.30
74539;BMP180;66042;51.090;-115.340;2023-04-21T13:10:04;87011.60;;;-0.30
74539;BMP180;66042;51.090;-115.340;2023-04-21T13:12:32;87013.00;;;-0.30
74539;BMP180;66042;51.090;-115.340;2023-04-21T13:15:00;87017.60;;;-0.30
74539;BMP180;66042;51.090;-115.340;2023-04-21T13:17:27;87019.80;;;-0.30
74539;BMP180;66042;51.090;-115.340;2023-04-21T13:19:54;87019.20;;;-0.30
74539;BMP180;66042;51.090;-115.340;2023-04-21T13:22:21;87023.60;;;-0.34
74539;BMP180;66042;51.090;-115.340;2023-04-21T13:24:49;87019.80;;;-0.38
74539;BMP180;66042;51.090;-115.340;2023-04-21T13:27:16;87020.40;;;-0.40
74539;BMP180;66042;51.090;-115.340;2023-04-21T13:29:43;87024.80;;;-0.40
74539;BMP180;66042;51.090;-115.340;2023-04-21T13:32:11;87027.80;;;-0.40
74539;BMP180;66042;51.090;-115.340;2023-04-21T13:34:38;87035.40;;;-0.40
74539;BMP180;66042;51.090;-115.340;2023-04-21T13:37:05;87034.80;;;-0.40
74539;BMP180;66042;51.090;-115.340;2023-04-21T13:39:36;87034.80;;;-0.40
74539;BMP180;66042;51.090;-115.340;2023-04-21T13:42:03;87037.80;;;-0.40
74539;BMP180;66042;51.090;-115.340;2023-04-21T13:44:30;87038.00;;;-0.40
74539;BMP180;66042;51.090;-115.340;2023-04-21T13:46:57;87038.00;;;-0.40
74539;BMP180;66042;51.090;-115.340;2023-04-21T13:49:24;87037.00;;;-0.40
74539;BMP180;66042;51.090;-115.340;2023-04-21T13:51:52;87039.60;;;-0.40
74539;BMP180;66042;51.090;-115.340;2023-04-21T13:54:19;87039.40;;;-0.40
74539;BMP180;66042;51.090;-115.340;2023-04-21T13:56:46;87038.60;;;-0.40
74539;BMP180;66042;51.090;-115.340;2023-04-21T13:59:14;87044.00;;;-0.40
74539;BMP180;66042;51.090;-115.340;2023-04-21T14:01:42;87048.60;;;-0.32